Time;durP1;ratioP1;P1;durP2;ratioP2;P2;SDS_P1;SDS_P2;PMS_P1;PMS_P2;Temp;Humidity;BMP_temperature;BMP_pressure;BME280_temperature;BME280_humidity;BME280_pressure;Samples;Min_cycle;Max_cycle;Signal;HPM_P1;HPM_P2
2023/07/14 00:01:09;;;;;;;7.30;5.18;;;;;;;;;;4969061;28;20296;-59
2023/07/14 00:03:34;;;;;;;10.35;5.53;;;;;;;;;;4969485;28;20268;-59
2023/07/14 00:06:00;;;;;;;10.50;5.85;;;;;;;;;;4969567;28;21159;-59
2023/07/14 00:08:29;;;;;;;11.07;5.93;;;;;;;;;;4969596;28;20307;-59
2023/07/14 00:10:55;;;;;;;11.75;6.15;;;;;;;;;;4969067;28;20214;-59
2023/07/14 00:13:20;;;;;;;7.70;5.90;;;;;;;;;;4970543;28;20225;-59
2023/07/14 00:15:46;;;;;;;8.95;6.07;;;;;;;;;;4970518;28;20217;-59
2023/07/14 00:18:20;;;;;;;10.75;6.68;;;;;;;;;;4968721;28;20792;-59
2023/07/14 00:20:45;;;;;;;9.77;6.53;;;;;;;;;;4969839;28;20218;-59
2023/07/14 00:23:12;;;;;;;8.73;6.60;;;;;;;;;;4969969;28;20560;-59
2023/07/14 00:25:37;;;;;;;9.18;6.35;;;;;;;;;;4969319;28;20277;-59
2023/07/14 00:28:03;;;;;;;10.32;6.35;;;;;;;;;;4969772;28;20209;-59
2023/07/14 00:30:28;;;;;;;12.85;6.28;;;;;;;;;;4970518;28;20951;-59
2023/07/14 00:32:54;;;;;;;11.35;6.10;;;;;;;;;;4970474;28;20310;-59
2023/07/14 00:35:21;;;;;;;9.18;6.35;;;;;;;;;;4967416;28;21535;-59
2023/07/14 00:37:47;;;;;;;10.73;5.97;;;;;;;;;;4969938;28;20305;-59
2023/07/14 00:40:20;;;;;;;10.52;6.20;;;;;;;;;;4970680;28;20216;-59
2023/07/14 00:42:46;;;;;;;9.55;5.95;;;;;;;;;;4969178;28;20229;-59
2023/07/14 00:45:14;;;;;;;12.73;7.00;;;;;;;;;;4967734;28;20225;-59
2023/07/14 00:47:40;;;;;;;9.80;6.75;;;;;;;;;;4970930;28;20217;-59
2023/07/14 00:50:07;;;;;;;12.13;7.38;;;;;;;;;;4968555;28;20288;-59
2023/07/14 00:52:35;;;;;;;8.95;5.82;;;;;;;;;;4966747;28;20301;-59
2023/07/14 00:55:04;;;;;;;11.70;6.50;;;;;;;;;;4968799;28;20886;-59
2023/07/14 00:57:30;;;;;;;8.05;5.72;;;;;;;;;;4969338;28;20213;-59
2023/07/14 00:59:57;;;;;;;10.80;6.10;;;;;;;;;;4968085;28;20213;-59
2023/07/14 01:02:23;;;;;;;9.57;6.57;;;;;;;;;;4968392;28;20209;-59
2023/07/14 01:04:51;;;;;;;10.90;6.85;;;;;;;;;;4969936;28;20219;-59
2023/07/14 01:07:17;;;;;;;11.57;6.95;;;;;;;;;;4969085;28;20228;-59
2023/07/14 01:09:42;;;;;;;10.70;7.05;;;;;;;;;;4968759;28;20205;-59
2023/07/14 01:12:08;;;;;;;13.25;7.32;;;;;;;;;;4954680;28;20230;-59
2023/07/14 01:14:36;;;;;;;9.73;6.55;;;;;;;;;;4958667;28;20225;-59
2023/07/14 01:17:01;;;;;;;10.93;7.40;;;;;;;;;;4950051;28;20220;-59
2023/07/14 01:19:36;;;;;;;9.70;7.50;;;;;;;;;;4954579;28;20212;-59
2023/07/14 01:22:05;;;;;;;10.40;7.90;;;;;;;;;;4950532;28;20214;-59
2023/07/14 01:24:32;;;;;;;12.38;7.93;;;;;;;;;;4960514;28;20684;-59
2023/07/14 01:27:02;;;;;;;12.50;8.48;;;;;;;;;;4952361;28;20741;-59
2023/07/14 01:29:28;;;;;;;14.30;8.77;;;;;;;;;;4959574;28;20216;-59
2023/07/14 01:31:53;;;;;;;9.73;7.68;;;;;;;;;;4959140;28;20947;-59
2023/07/14 01:37:21;;;;;;;12.50;8.88;;;;;;;;;;4967597;28;20363;-59
2023/07/14 01:39:47;;;;;;;10.40;7.57;;;;;;;;;;4967669;28;20632;-59
2023/07/14 01:42:12;;;;;;;12.00;8.38;;;;;;;;;;4951872;28;20681;-60
2023/07/14 01:44:38;;;;;;;12.77;8.63;;;;;;;;;;4948616;28;20638;-59
2023/07/14 01:47:05;;;;;;;11.60;8.60;;;;;;;;;;4947016;28;20308;-60
2023/07/14 01:49:35;;;;;;;13.80;8.52;;;;;;;;;;4961017;28;20213;-59
2023/07/14 01:52:01;;;;;;;12.02;8.70;;;;;;;;;;4947479;28;20286;-59
2023/07/14 01:54:35;;;;;;;11.23;7.60;;;;;;;;;;4955033;28;20910;-59
2023/07/14 01:57:01;;;;;;;11.23;7.57;;;;;;;;;;4946609;28;20728;-59
2023/07/14 01:59:28;;;;;;;14.10;8.50;;;;;;;;;;4946615;28;21044;-59
2023/07/14 02:01:53;;;;;;;11.82;8.20;;;;;;;;;;4949010;28;20237;-59
2023/07/14 02:04:32;;;;;;;10.55;7.32;;;;;;;;;;4948564;28;20218;-59
2023/07/14 02:06:58;;;;;;;10.07;7.80;;;;;;;;;;4966797;28;20225;-59
2023/07/14 02:09:23;;;;;;;9.85;7.30;;;;;;;;;;4966185;28;20221;-59
2023/07/14 02:11:51;;;;;;;10.80;7.70;;;;;;;;;;4963075;28;20614;-59
2023/07/14 02:14:17;;;;;;;9.25;7.55;;;;;;;;;;4942113;28;20225;-59
2023/07/14 02:16:43;;;;;;;11.27;7.22;;;;;;;;;;4941585;28;20245;-59
2023/07/14 02:19:10;;;;;;;10.02;7.55;;;;;;;;;;4929882;28;20564;-60
2023/07/14 02:21:37;;;;;;;11.38;7.50;;;;;;;;;;4952981;28;20215;-59
2023/07/14 02:24:04;;;;;;;10.73;7.63;;;;;;;;;;4947420;28;20217;-60
2023/07/14 02:26:32;;;;;;;11.18;8.05;;;;;;;;;;4967203;28;20229;-60
2023/07/14 02:28:58;;;;;;;12.20;7.78;;;;;;;;;;4960250;28;20623;-60
2023/07/14 02:31:23;;;;;;;9.93;8.23;;;;;;;;;;4969713;28;20216;-59
2023/07/14 02:33:49;;;;;;;12.48;8.10;;;;;;;;;;4966380;28;20309;-60
2023/07/14 02:36:32;;;;;;;10.07;7.63;;;;;;;;;;4943969;28;20218;-59
2023/07/14 02:38:59;;;;;;;10.85;8.45;;;;;;;;;;4951923;28;20214;-60
2023/07/14 02:41:28;;;;;;;10.60;8.73;;;;;;;;;;4965668;28;20275;-60
2023/07/14 02:43:54;;;;;;;11.02;8.38;;;;;;;;;;4954996;28;20217;-60
2023/07/14 02:46:22;;;;;;;12.43;8.40;;;;;;;;;;4962916;28;20222;-60
2023/07/14 02:48:48;;;;;;;10.95;8.52;;;;;;;;;;4970429;28;20224;-60
2023/07/14 02:51:14;;;;;;;12.65;8.07;;;;;;;;;;4969532;28;20218;-59
2023/07/14 02:53:39;;;;;;;11.05;8.35;;;;;;;;;;4972992;28;20300;-60
2023/07/14 02:56:04;;;;;;;11.25;7.63;;;;;;;;;;4967661;28;20214;-60
2023/07/14 02:58:30;;;;;;;11.82;7.88;;;;;;;;;;4962034;28;20258;-60
2023/07/14 03:00:55;;;;;;;8.88;7.95;;;;;;;;;;4964107;28;20224;-59
2023/07/14 03:03:21;;;;;;;10.80;8.73;;;;;;;;;;4970480;28;20221;-59
2023/07/14 03:05:47;;;;;;;11.23;9.15;;;;;;;;;;4988657;28;20240;-59
2023/07/14 03:08:16;;;;;;;14.23;8.45;;;;;;;;;;4980903;28;20218;-59
2023/07/14 03:10:45;;;;;;;13.15;9.00;;;;;;;;;;4969807;28;20236;-59
2023/07/14 03:13:11;;;;;;;11.45;9.18;;;;;;;;;;4964512;28;20552;-59
2023/07/14 03:15:36;;;;;;;11.05;8.25;;;;;;;;;;4969723;28;20214;-59
2023/07/14 03:18:02;;;;;;;13.27;8.85;;;;;;;;;;4967792;28;20630;-60
2023/07/14 03:20:27;;;;;;;14.95;9.75;;;;;;;;;;4970202;28;20214;-60
2023/07/14 03:22:52;;;;;;;11.40;8.80;;;;;;;;;;4968807;28;20316;-59
2023/07/14 03:25:18;;;;;;;11.13;8.63;;;;;;;;;;4961577;28;20221;-60
2023/07/14 03:27:45;;;;;;;12.15;9.38;;;;;;;;;;4945029;28;20890;-60
2023/07/14 03:30:11;;;;;;;11.73;8.57;;;;;;;;;;4947262;28;20467;-60
2023/07/14 03:32:36;;;;;;;10.90;8.50;;;;;;;;;;4950264;28;21000;-60
2023/07/14 03:35:02;;;;;;;13.43;8.45;;;;;;;;;;4965762;28;20693;-60
2023/07/14 03:37:27;;;;;;;12.13;9.10;;;;;;;;;;4972040;28;20296;-60
2023/07/14 03:39:52;;;;;;;13.80;9.82;;;;;;;;;;4967720;28;21638;-60
2023/07/14 03:42:18;;;;;;;11.93;9.30;;;;;;;;;;4966630;28;20221;-60
2023/07/14 03:44:43;;;;;;;12.73;9.30;;;;;;;;;;4969851;28;20232;-60
2023/07/14 03:47:08;;;;;;;12.15;9.52;;;;;;;;;;4964533;28;20224;-59
2023/07/14 03:49:34;;;;;;;13.50;9.80;;;;;;;;;;4960468;28;20213;-59
2023/07/14 03:52:00;;;;;;;11.57;9.38;;;;;;;;;;4962122;28;20308;-59
2023/07/14 03:54:25;;;;;;;12.13;9.23;;;;;;;;;;4967542;28;20217;-60
2023/07/14 03:56:52;;;;;;;11.30;9.05;;;;;;;;;;4968674;28;20848;-60
2023/07/14 03:59:17;;;;;;;12.93;9.70;;;;;;;;;;4968005;28;20316;-60
2023/07/14 04:01:42;;;;;;;16.48;10.10;;;;;;;;;;4970243;28;20220;-60
2023/07/14 04:04:08;;;;;;;13.30;10.52;;;;;;;;;;4966798;28;21100;-59
2023/07/14 04:06:33;;;;;;;14.38;10.55;;;;;;;;;;4968734;28;20229;-60
2023/07/14 04:08:59;;;;;;;11.77;9.25;;;;;;;;;;4966318;28;20357;-59
2023/07/14 04:11:24;;;;;;;12.25;10.30;;;;;;;;;;4962666;28;20225;-59
2023/07/14 04:13:50;;;;;;;13.43;10.35;;;;;;;;;;4960130;28;20213;-60
2023/07/14 04:16:15;;;;;;;11.13;9.55;;;;;;;;;;4963529;28;20619;-60
2023/07/14 04:18:40;;;;;;;13.68;10.40;;;;;;;;;;4968852;28;20244;-60
2023/07/14 04:21:07;;;;;;;13.80;9.77;;;;;;;;;;4968587;28;20306;-60
2023/07/14 04:23:32;;;;;;;12.93;10.18;;;;;;;;;;4967943;28;20615;-60
2023/07/14 04:25:58;;;;;;;12.43;9.55;;;;;;;;;;4970607;28;20221;-60
2023/07/14 04:28:24;;;;;;;13.18;10.20;;;;;;;;;;4972448;28;20265;-60
2023/07/14 04:30:53;;;;;;;12.43;10.23;;;;;;;;;;4966520;28;20255;-60
2023/07/14 04:33:19;;;;;;;14.48;10.35;;;;;;;;;;4961539;28;20237;-60
2023/07/14 04:35:44;;;;;;;13.20;9.50;;;;;;;;;;4960883;28;20219;-59
2023/07/14 04:38:09;;;;;;;13.85;10.25;;;;;;;;;;4958098;28;20908;-59
2023/07/14 04:40:39;;;;;;;13.10;10.10;;;;;;;;;;4967706;28;20222;-59
2023/07/14 04:43:04;;;;;;;13.43;10.02;;;;;;;;;;4968056;28;20213;-60
2023/07/14 04:45:29;;;;;;;12.80;9.48;;;;;;;;;;4967499;28;20232;-60
2023/07/14 04:47:56;;;;;;;13.65;9.32;;;;;;;;;;4968005;28;20337;-60
2023/07/14 04:50:22;;;;;;;12.15;10.05;;;;;;;;;;4966762;28;20249;-60
2023/07/14 04:52:47;;;;;;;14.77;9.35;;;;;;;;;;4969262;28;20315;-61
2023/07/14 04:55:12;;;;;;;13.68;9.27;;;;;;;;;;4961769;28;20790;-62
2023/07/14 04:57:38;;;;;;;16.02;9.73;;;;;;;;;;4951154;28;20222;-61
2023/07/14 05:00:05;;;;;;;12.85;9.23;;;;;;;;;;4962433;28;20220;-61
2023/07/14 05:02:30;;;;;;;13.40;9.45;;;;;;;;;;4965835;28;20213;-60
2023/07/14 05:05:09;;;;;;;13.95;9.30;;;;;;;;;;4965459;28;20271;-60
2023/07/14 05:07:34;;;;;;;13.30;9.82;;;;;;;;;;4967861;28;20225;-61
2023/07/14 05:09:59;;;;;;;10.85;8.90;;;;;;;;;;4968075;28;20210;-60
2023/07/14 05:12:25;;;;;;;10.15;9.02;;;;;;;;;;4966125;28;20565;-61
2023/07/14 05:14:50;;;;;;;14.55;9.13;;;;;;;;;;4965974;28;20302;-61
2023/07/14 05:17:16;;;;;;;11.77;9.05;;;;;;;;;;4964791;28;20736;-60
2023/07/14 05:19:42;;;;;;;10.30;8.10;;;;;;;;;;4959521;28;20240;-60
2023/07/14 05:22:07;;;;;;;11.80;8.63;;;;;;;;;;4959547;28;20209;-60
2023/07/14 05:24:32;;;;;;;12.63;8.95;;;;;;;;;;4965830;28;20255;-61
2023/07/14 05:26:59;;;;;;;14.07;9.20;;;;;;;;;;4966819;28;20225;-60
2023/07/14 05:29:25;;;;;;;12.60;9.43;;;;;;;;;;4966012;28;20226;-60
2023/07/14 05:31:50;;;;;;;11.52;10.13;;;;;;;;;;4968162;28;20217;-60
2023/07/14 05:34:15;;;;;;;15.57;10.38;;;;;;;;;;4966706;28;20323;-59
2023/07/14 05:36:41;;;;;;;15.18;10.75;;;;;;;;;;4966677;28;20210;-60
2023/07/14 05:39:06;;;;;;;14.05;10.73;;;;;;;;;;4963548;28;20293;-61
2023/07/14 05:41:32;;;;;;;15.23;11.45;;;;;;;;;;4960426;28;20436;-60
2023/07/14 05:43:57;;;;;;;18.23;10.60;;;;;;;;;;4959169;28;20275;-60
2023/07/14 05:46:23;;;;;;;14.93;9.68;;;;;;;;;;4959340;28;20696;-60
2023/07/14 05:48:48;;;;;;;15.35;10.60;;;;;;;;;;4967765;28;20263;-60
2023/07/14 05:51:13;;;;;;;16.42;9.93;;;;;;;;;;4967466;28;20221;-60
2023/07/14 05:53:39;;;;;;;14.60;9.38;;;;;;;;;;4967317;28;20213;-60
2023/07/14 05:56:04;;;;;;;15.07;9.95;;;;;;;;;;4967515;28;20312;-61
2023/07/14 05:58:29;;;;;;;12.52;9.30;;;;;;;;;;4968020;28;20240;-60
2023/07/14 06:00:55;;;;;;;13.48;9.15;;;;;;;;;;4966405;28;20218;-60
2023/07/14 06:03:20;;;;;;;13.38;9.38;;;;;;;;;;4959538;28;20221;-60
2023/07/14 06:05:46;;;;;;;12.77;8.77;;;;;;;;;;4965670;28;20298;-60
2023/07/14 06:08:11;;;;;;;13.48;10.48;;;;;;;;;;4963204;28;20822;-60
2023/07/14 06:10:37;;;;;;;13.93;10.98;;;;;;;;;;4970171;28;20217;-60
2023/07/14 06:13:03;;;;;;;14.85;10.25;;;;;;;;;;4970627;28;20551;-60
2023/07/14 06:15:28;;;;;;;13.00;10.27;;;;;;;;;;4971329;28;20312;-60
2023/07/14 06:17:53;;;;;;;15.52;10.65;;;;;;;;;;4970261;28;20703;-60
2023/07/14 06:20:20;;;;;;;15.82;11.32;;;;;;;;;;4970554;28;20257;-60
2023/07/14 06:22:45;;;;;;;13.40;10.45;;;;;;;;;;4972893;28;20224;-60
2023/07/14 06:25:10;;;;;;;16.42;10.43;;;;;;;;;;4965923;28;20233;-60
2023/07/14 06:27:36;;;;;;;14.02;9.88;;;;;;;;;;4962904;28;20220;-60
2023/07/14 06:30:02;;;;;;;15.00;10.10;;;;;;;;;;4968771;28;20276;-60
2023/07/14 06:32:27;;;;;;;13.15;8.73;;;;;;;;;;4987878;28;20210;-60
2023/07/14 06:34:56;;;;;;;16.17;9.23;;;;;;;;;;4990074;28;20231;-61
2023/07/14 06:37:22;;;;;;;11.80;8.77;;;;;;;;;;4988663;28;20228;-60
2023/07/14 06:39:47;;;;;;;12.20;8.15;;;;;;;;;;4988873;28;20217;-60
2023/07/14 06:42:12;;;;;;;13.48;6.80;;;;;;;;;;4990307;28;20220;-60
2023/07/14 06:44:38;;;;;;;11.10;7.20;;;;;;;;;;4989482;28;20217;-60
2023/07/14 06:47:03;;;;;;;12.18;6.63;;;;;;;;;;4988062;28;20248;-60
2023/07/14 06:49:29;;;;;;;10.93;6.95;;;;;;;;;;4991085;28;20213;-60
2023/07/14 06:51:54;;;;;;;11.43;7.32;;;;;;;;;;4991627;28;20243;-60
2023/07/14 06:54:20;;;;;;;10.32;6.88;;;;;;;;;;4990361;28;20221;-61
2023/07/14 06:56:45;;;;;;;12.40;6.90;;;;;;;;;;4990244;28;20248;-61
2023/07/14 06:59:10;;;;;;;15.13;7.25;;;;;;;;;;4991101;28;20225;-60
2023/07/14 07:01:36;;;;;;;11.57;6.05;;;;;;;;;;4991042;28;20217;-60
2023/07/14 07:04:01;;;;;;;10.07;5.60;;;;;;;;;;4988694;28;20577;-61
2023/07/14 07:06:27;;;;;;;10.23;5.40;;;;;;;;;;4991010;28;20236;-61
2023/07/14 07:08:52;;;;;;;10.35;5.40;;;;;;;;;;4991432;28;20715;-62
2023/07/14 07:11:17;;;;;;;11.73;5.30;;;;;;;;;;4988286;28;20205;-61
2023/07/14 07:13:43;;;;;;;9.13;5.13;;;;;;;;;;4990551;28;20287;-61
2023/07/14 07:16:08;;;;;;;11.55;5.00;;;;;;;;;;4990651;28;20604;-61
2023/07/14 07:18:33;;;;;;;8.38;4.63;;;;;;;;;;4989682;28;20247;-62
2023/07/14 07:20:59;;;;;;;11.45;4.88;;;;;;;;;;4989335;28;20661;-62
2023/07/14 07:23:24;;;;;;;9.52;5.22;;;;;;;;;;4989987;28;20800;-62
2023/07/14 07:25:50;;;;;;;10.50;4.93;;;;;;;;;;4990141;28;20229;-62
2023/07/14 07:28:16;;;;;;;9.85;5.15;;;;;;;;;;4969950;28;20209;-62
2023/07/14 07:30:41;;;;;;;13.90;5.60;;;;;;;;;;4991191;28;20239;-61
2023/07/14 07:33:06;;;;;;;8.35;3.85;;;;;;;;;;4989513;28;20311;-59
2023/07/14 07:35:35;;;;;;;10.63;4.20;;;;;;;;;;4988671;28;20243;-59
2023/07/14 07:38:02;;;;;;;8.35;4.00;;;;;;;;;;4989651;28;20659;-59
2023/07/14 07:40:27;;;;;;;7.00;3.85;;;;;;;;;;4989943;28;20225;-60
2023/07/14 07:42:54;;;;;;;7.63;3.60;;;;;;;;;;4989856;28;20253;-59
2023/07/14 07:45:19;;;;;;;8.70;3.60;;;;;;;;;;4988426;28;20248;-60
2023/07/14 07:47:45;;;;;;;7.40;3.30;;;;;;;;;;4984582;28;21500;-59
2023/07/14 07:50:10;;;;;;;7.70;3.28;;;;;;;;;;4988826;28;20217;-58
2023/07/14 07:52:36;;;;;;;7.22;2.72;;;;;;;;;;4988102;28;20209;-58
2023/07/14 07:55:01;;;;;;;5.97;3.25;;;;;;;;;;4988443;28;20715;-61
2023/07/14 07:57:27;;;;;;;7.32;3.50;;;;;;;;;;4990368;28;20225;-58
2023/07/14 07:59:52;;;;;;;7.82;3.30;;;;;;;;;;4988600;28;20209;-58
2023/07/14 08:02:20;;;;;;;4.93;2.83;;;;;;;;;;4988213;28;20223;-58
2023/07/14 08:04:49;;;;;;;10.50;3.08;;;;;;;;;;4988878;28;20213;-59
2023/07/14 08:07:14;;;;;;;4.28;2.60;;;;;;;;;;4989002;28;20545;-59
2023/07/14 08:09:39;;;;;;;6.47;3.00;;;;;;;;;;4987731;28;21007;-60
2023/07/14 08:12:05;;;;;;;6.80;2.85;;;;;;;;;;4989372;28;20225;-59
2023/07/14 08:14:32;;;;;;;6.18;3.05;;;;;;;;;;4989588;28;20213;-59
2023/07/14 08:16:57;;;;;;;6.85;2.60;;;;;;;;;;4987631;28;20782;-59
2023/07/14 08:19:22;;;;;;;7.53;2.50;;;;;;;;;;4988442;28;20217;-60
2023/07/14 08:21:48;;;;;;;7.15;2.67;;;;;;;;;;4989307;28;20209;-59
2023/07/14 08:24:13;;;;;;;6.78;2.75;;;;;;;;;;4988447;28;20227;-59
2023/07/14 08:26:39;;;;;;;5.90;2.50;;;;;;;;;;4987805;28;20221;-59
2023/07/14 08:29:05;;;;;;;6.00;3.08;;;;;;;;;;4988641;28;20227;-59
2023/07/14 08:31:30;;;;;;;7.07;2.92;;;;;;;;;;4989440;28;20224;-59
2023/07/14 08:33:56;;;;;;;5.82;2.83;;;;;;;;;;4986807;28;20689;-60
2023/07/14 08:36:21;;;;;;;6.82;2.53;;;;;;;;;;4988270;28;20275;-59
2023/07/14 08:38:46;;;;;;;8.90;3.10;;;;;;;;;;4989368;28;20217;-59
2023/07/14 08:41:28;;;;;;;6.18;3.05;;;;;;;;;;4987645;28;20216;-60
2023/07/14 08:44:11;;;;;;;8.43;2.58;;;;;;;;;;4987066;28;20216;-59
2023/07/14 08:46:37;;;;;;;5.75;2.40;;;;;;;;;;4991630;28;20233;-59
2023/07/14 08:49:10;;;;;;;6.07;2.90;;;;;;;;;;4973364;28;20300;-60
2023/07/14 08:51:37;;;;;;;5.40;2.42;;;;;;;;;;4968400;28;20375;-59
2023/07/14 08:54:04;;;;;;;7.18;2.55;;;;;;;;;;4989398;28;20201;-59
2023/07/14 08:56:30;;;;;;;5.82;2.58;;;;;;;;;;4988929;28;20218;-59
2023/07/14 08:58:56;;;;;;;9.20;2.42;;;;;;;;;;4968618;28;20217;-59
2023/07/14 09:01:21;;;;;;;5.75;2.10;;;;;;;;;;4969905;28;20264;-59
2023/07/14 09:03:48;;;;;;;7.68;2.60;;;;;;;;;;4982964;28;20344;-60
2023/07/14 09:06:17;;;;;;;4.95;2.30;;;;;;;;;;4986566;28;20700;-60
2023/07/14 09:08:43;;;;;;;5.00;2.70;;;;;;;;;;4987992;28;20236;-59
2023/07/14 09:11:26;;;;;;;5.38;2.33;;;;;;;;;;4988014;28;20212;-60
2023/07/14 09:13:58;;;;;;;8.00;2.55;;;;;;;;;;4988272;28;20228;-59
2023/07/14 09:16:23;;;;;;;6.78;2.90;;;;;;;;;;4985175;28;20287;-59
2023/07/14 09:18:52;;;;;;;6.93;2.60;;;;;;;;;;4968746;28;20248;-60
2023/07/14 09:21:24;;;;;;;4.85;2.22;;;;;;;;;;4985714;28;20217;-59
2023/07/14 09:23:58;;;;;;;7.18;2.97;;;;;;;;;;4970245;28;20209;-60
2023/07/14 09:26:31;;;;;;;4.38;2.33;;;;;;;;;;4985296;28;20239;-59
2023/07/14 09:28:56;;;;;;;6.63;2.55;;;;;;;;;;4988450;28;20221;-59
2023/07/14 09:31:37;;;;;;;8.43;2.70;;;;;;;;;;4966912;28;20214;-59
2023/07/14 09:34:04;;;;;;;5.70;2.20;;;;;;;;;;4966248;28;20248;-59
2023/07/14 09:36:29;;;;;;;6.40;2.90;;;;;;;;;;4966249;28;20264;-59
2023/07/14 09:38:55;;;;;;;5.78;2.55;;;;;;;;;;4966787;28;20634;-59
2023/07/14 09:41:24;;;;;;;6.38;2.53;;;;;;;;;;4966950;28;20225;-59
2023/07/14 09:43:49;;;;;;;5.80;2.58;;;;;;;;;;4966484;28;20254;-59
2023/07/14 09:46:17;;;;;;;6.55;2.78;;;;;;;;;;4968336;28;20229;-59
2023/07/14 09:48:49;;;;;;;5.72;2.50;;;;;;;;;;4968843;28;20308;-59
2023/07/14 09:51:21;;;;;;;5.43;2.72;;;;;;;;;;4967694;28;20227;-60
2023/07/14 09:54:00;;;;;;;7.30;2.63;;;;;;;;;;4966420;28;20632;-59
2023/07/14 09:56:31;;;;;;;5.80;2.45;;;;;;;;;;4968593;28;20717;-59
2023/07/14 09:59:01;;;;;;;7.20;2.63;;;;;;;;;;4969085;28;20221;-59
2023/07/14 10:01:29;;;;;;;5.40;2.30;;;;;;;;;;4965936;28;20225;-59
2023/07/14 10:03:56;;;;;;;9.18;2.60;;;;;;;;;;4967951;28;20291;-59
2023/07/14 10:06:26;;;;;;;6.20;2.35;;;;;;;;;;4969348;28;20655;-59
2023/07/14 10:08:56;;;;;;;5.88;2.63;;;;;;;;;;4987972;28;20221;-59
2023/07/14 10:11:27;;;;;;;5.75;2.47;;;;;;;;;;4985107;28;20220;-60
2023/07/14 10:14:00;;;;;;;4.97;2.53;;;;;;;;;;4987545;28;20677;-59
2023/07/14 10:16:26;;;;;;;5.82;2.55;;;;;;;;;;4987103;28;20217;-59
2023/07/14 10:19:00;;;;;;;4.60;2.40;;;;;;;;;;4987235;28;20574;-60
2023/07/14 10:21:32;;;;;;;5.25;2.53;;;;;;;;;;4985569;28;20236;-59
2023/07/14 10:24:04;;;;;;;4.68;2.30;;;;;;;;;;4987705;28;20615;-59
2023/07/14 10:26:32;;;;;;;5.90;2.80;;;;;;;;;;4987778;28;20302;-59
2023/07/14 10:28:58;;;;;;;4.57;2.33;;;;;;;;;;4985026;28;20732;-59
2023/07/14 10:31:29;;;;;;;4.35;2.20;;;;;;;;;;4986642;28;20304;-59
2023/07/14 10:33:54;;;;;;;6.10;2.60;;;;;;;;;;4967055;28;20297;-59
2023/07/14 10:36:24;;;;;;;5.93;2.25;;;;;;;;;;4967013;28;20245;-60
2023/07/14 10:38:54;;;;;;;4.38;2.33;;;;;;;;;;4966292;28;20213;-58
2023/07/14 10:41:19;;;;;;;6.65;2.20;;;;;;;;;;4966648;28;20210;-59
2023/07/14 10:43:44;;;;;;;7.30;2.67;;;;;;;;;;4967290;28;20301;-59
2023/07/14 10:46:45;;;;;;;6.38;2.60;;;;;;;;;;4966604;28;20674;-60
2023/07/14 10:49:20;;;;;;;5.35;2.67;;;;;;;;;;4962658;28;20265;-59
2023/07/14 10:51:55;;;;;;;4.07;2.03;;;;;;;;;;4965727;28;20233;-59
2023/07/14 10:54:22;;;;;;;4.65;2.53;;;;;;;;;;4971674;28;20308;-59
2023/07/14 10:57:03;;;;;;;5.55;2.42;;;;;;;;;;4969291;28;20210;-59
2023/07/14 10:59:34;;;;;;;5.95;2.33;;;;;;;;;;4969716;28;20241;-60
2023/07/14 11:02:07;;;;;;;7.22;2.10;;;;;;;;;;4970841;28;20586;-60
2023/07/14 11:04:34;;;;;;;8.13;2.53;;;;;;;;;;4970807;28;20272;-60
2023/07/14 11:07:00;;;;;;;7.25;2.28;;;;;;;;;;4970525;28;20214;-60
2023/07/14 11:09:28;;;;;;;4.60;2.38;;;;;;;;;;4969085;28;20337;-59
2023/07/14 11:11:59;;;;;;;4.10;2.03;;;;;;;;;;4970011;28;20241;-60
2023/07/14 11:14:30;;;;;;;7.57;2.33;;;;;;;;;;4971499;28;20218;-60
2023/07/14 11:16:56;;;;;;;7.50;2.20;;;;;;;;;;4969178;28;20248;-60
2023/07/14 11:19:23;;;;;;;5.63;2.28;;;;;;;;;;4970860;28;20296;-59
2023/07/14 11:21:51;;;;;;;5.07;2.10;;;;;;;;;;4971345;28;20210;-60
2023/07/14 11:24:18;;;;;;;4.70;2.00;;;;;;;;;;4969493;28;20216;-60
2023/07/14 11:26:50;;;;;;;5.50;2.22;;;;;;;;;;4970235;28;20784;-60
2023/07/14 11:29:17;;;;;;;5.03;2.08;;;;;;;;;;4971185;28;20321;-60
2023/07/14 11:31:52;;;;;;;5.88;2.30;;;;;;;;;;4970819;28;20495;-60
2023/07/14 11:34:20;;;;;;;6.13;2.22;;;;;;;;;;4967172;28;20224;-60
2023/07/14 11:37:04;;;;;;;4.18;1.92;;;;;;;;;;4971296;28;20288;-60
2023/07/14 11:39:29;;;;;;;6.38;2.13;;;;;;;;;;4969766;28;20221;-60
2023/07/14 11:41:55;;;;;;;4.38;2.20;;;;;;;;;;4970503;28;20228;-60
2023/07/14 11:44:20;;;;;;;4.15;1.92;;;;;;;;;;4967676;28;20245;-60
2023/07/14 11:46:45;;;;;;;5.55;2.30;;;;;;;;;;4969024;28;20245;-60
2023/07/14 11:49:24;;;;;;;7.07;2.53;;;;;;;;;;4970108;28;20348;-60
2023/07/14 11:51:51;;;;;;;6.20;1.92;;;;;;;;;;4968620;28;20287;-60
2023/07/14 11:54:40;;;;;;;5.47;2.20;;;;;;;;;;4968596;28;20233;-60
2023/07/14 11:57:09;;;;;;;8.70;2.42;;;;;;;;;;4970784;28;20304;-60
2023/07/14 11:59:40;;;;;;;6.45;2.60;;;;;;;;;;4969167;28;20269;-60
2023/07/14 12:02:24;;;;;;;6.95;2.50;;;;;;;;;;4966636;28;20292;-60
2023/07/14 12:05:24;;;;;;;5.07;2.30;;;;;;;;;;4969288;28;20297;-60
2023/07/14 12:08:15;;;;;;;5.13;2.38;;;;;;;;;;4969383;28;20244;-60
2023/07/14 12:10:41;;;;;;;7.70;2.60;;;;;;;;;;4969776;28;20273;-60
2023/07/14 12:13:29;;;;;;;6.15;2.53;;;;;;;;;;4969947;28;20230;-60
2023/07/14 12:15:55;;;;;;;4.63;2.13;;;;;;;;;;4963476;28;20210;-60
2023/07/14 12:18:27;;;;;;;5.50;2.30;;;;;;;;;;4969503;28;20226;-60
2023/07/14 12:21:11;;;;;;;5.88;2.47;;;;;;;;;;4970247;28;20715;-60
2023/07/14 12:23:37;;;;;;;7.47;2.80;;;;;;;;;;4970559;28;20708;-59
2023/07/14 12:26:12;;;;;;;4.95;2.20;;;;;;;;;;4966395;28;20242;-60
2023/07/14 12:28:38;;;;;;;5.63;2.60;;;;;;;;;;4969206;28;20225;-59
2023/07/14 12:31:04;;;;;;;4.47;2.20;;;;;;;;;;4969646;28;20376;-60
2023/07/14 12:33:29;;;;;;;4.38;2.10;;;;;;;;;;4969583;28;20233;-60
2023/07/14 12:35:55;;;;;;;5.75;2.40;;;;;;;;;;4967142;28;20237;-60
2023/07/14 12:38:21;;;;;;;6.90;2.60;;;;;;;;;;4969670;28;20230;-60
2023/07/14 12:40:50;;;;;;;5.00;2.28;;;;;;;;;;4970272;28;20596;-60
2023/07/14 12:43:23;;;;;;;5.10;2.33;;;;;;;;;;4965388;28;20221;-59
2023/07/14 12:45:48;;;;;;;7.32;2.40;;;;;;;;;;4969683;28;20932;-60
2023/07/14 12:48:14;;;;;;;5.15;2.30;;;;;;;;;;4968291;28;20272;-60
2023/07/14 12:50:40;;;;;;;5.93;3.17;;;;;;;;;;4968809;28;20214;-60
2023/07/14 12:53:10;;;;;;;9.13;2.70;;;;;;;;;;4963096;28;20217;-60
2023/07/14 12:55:35;;;;;;;5.47;2.25;;;;;;;;;;4967847;28;20222;-60
2023/07/14 12:58:05;;;;;;;3.65;2.10;;;;;;;;;;4969504;28;20218;-61
2023/07/14 13:00:32;;;;;;;6.78;2.45;;;;;;;;;;4967266;28;20220;-60
2023/07/14 13:02:58;;;;;;;6.95;2.30;;;;;;;;;;4967526;28;20624;-60
2023/07/14 13:05:27;;;;;;;4.93;2.13;;;;;;;;;;4969019;28;20704;-60
2023/07/14 13:07:53;;;;;;;7.43;2.28;;;;;;;;;;4968602;28;20233;-60
2023/07/14 13:10:40;;;;;;;3.97;2.13;;;;;;;;;;4966745;28;20688;-60
2023/07/14 13:13:06;;;;;;;4.60;1.98;;;;;;;;;;4968474;28;20210;-60
2023/07/14 13:15:31;;;;;;;5.93;2.40;;;;;;;;;;4972239;28;20248;-60
2023/07/14 13:17:58;;;;;;;5.65;2.38;;;;;;;;;;4968208;28;20278;-60
2023/07/14 13:20:24;;;;;;;5.75;2.30;;;;;;;;;;4967520;28;20268;-60
2023/07/14 13:23:19;;;;;;;;;;;;;;;;;;;;;
2023/07/14 13:26:03;;;;;;;8.35;2.80;;;;;;;;;;4962656;28;20297;-61
2023/07/14 13:28:28;;;;;;;6.38;2.67;;;;;;;;;;4969263;28;20258;-60
2023/07/14 13:30:53;;;;;;;6.13;2.97;;;;;;;;;;4966935;28;20249;-60
2023/07/14 13:33:21;;;;;;;6.40;2.72;;;;;;;;;;4952599;28;20233;-60
2023/07/14 13:35:54;;;;;;;4.78;2.55;;;;;;;;;;4944434;28;20219;-60
2023/07/14 13:38:19;;;;;;;6.18;2.42;;;;;;;;;;4943475;28;20791;-60
2023/07/14 13:40:46;;;;;;;7.70;2.75;;;;;;;;;;4947405;28;20226;-60
2023/07/14 13:43:48;;;;;;;7.27;2.90;;;;;;;;;;5032923;23;20499;-59
2023/07/14 13:46:15;;;;;;;7.15;3.03;;;;;;;;;;4959059;28;20496;-59
2023/07/14 13:48:42;;;;;;;5.68;2.63;;;;;;;;;;4961149;28;20221;-58
2023/07/14 13:51:13;;;;;;;6.82;2.63;;;;;;;;;;4959532;28;20222;-59
2023/07/14 13:53:38;;;;;;;6.65;2.38;;;;;;;;;;4938073;28;20222;-59
2023/07/14 13:56:03;;;;;;;5.15;2.63;;;;;;;;;;4928931;28;20225;-59
2023/07/14 13:58:29;;;;;;;4.80;2.13;;;;;;;;;;4954334;28;20221;-59
2023/07/14 14:00:54;;;;;;;5.45;2.30;;;;;;;;;;4953373;28;20228;-59
2023/07/14 14:03:21;;;;;;;7.60;2.50;;;;;;;;;;4958665;28;20291;-58
2023/07/14 14:05:47;;;;;;;6.82;2.10;;;;;;;;;;4962586;28;20252;-59
2023/07/14 14:08:13;;;;;;;4.53;2.38;;;;;;;;;;4960819;28;20741;-59
2023/07/14 14:10:38;;;;;;;4.85;2.05;;;;;;;;;;4962143;28;20220;-59
2023/07/14 14:13:04;;;;;;;6.82;2.40;;;;;;;;;;4961469;28;20248;-59
2023/07/14 14:15:31;;;;;;;6.30;2.35;;;;;;;;;;4962184;28;20855;-59
2023/07/14 14:17:57;;;;;;;10.00;2.20;;;;;;;;;;4958950;28;20241;-58
2023/07/14 14:20:23;;;;;;;5.57;2.00;;;;;;;;;;4953649;28;20692;-58
2023/07/14 14:22:49;;;;;;;5.63;2.20;;;;;;;;;;4928303;28;20301;-59
2023/07/14 14:25:16;;;;;;;5.28;2.10;;;;;;;;;;4955624;28;20522;-59
2023/07/14 14:27:42;;;;;;;4.82;2.08;;;;;;;;;;4965804;28;20224;-59
2023/07/14 14:30:09;;;;;;;7.03;2.35;;;;;;;;;;4966481;28;20222;-59
2023/07/14 14:32:34;;;;;;;4.88;2.28;;;;;;;;;;4966106;28;20218;-59
2023/07/14 14:35:00;;;;;;;3.97;2.10;;;;;;;;;;4965012;28;20532;-58
2023/07/14 14:37:26;;;;;;;2.90;1.75;;;;;;;;;;4957261;28;20698;-59
2023/07/14 14:39:52;;;;;;;5.63;2.22;;;;;;;;;;4985988;28;20213;-59
2023/07/14 14:42:18;;;;;;;6.28;2.50;;;;;;;;;;4974289;28;20459;-59